Time;durP1;ratioP1;P1;durP2;ratioP2;P2;SDS_P1;SDS_P2;PMS_P1;PMS_P2;Temp;Humidity;BMP_temperature;BMP_pressure;BME280_temperature;BME280_humidity;BME280_pressure;Samples;Min_cycle;Max_cycle;Signal;HPM_P1;HPM_P2
2023/10/15 00:01:45;;;;;;;7.05;4.00;;;;;;;13.06;100.00;92160.31;6274919;22;20034;-81
2023/10/15 00:04:12;;;;;;;5.18;3.28;;;;;;;13.00;100.00;92164.19;6274499;22;20079;-80
2023/10/15 00:06:40;;;;;;;5.03;3.00;;;;;;;12.91;100.00;92161.53;6275921;22;20016;-81
2023/10/15 00:09:06;;;;;;;4.63;3.08;;;;;;;12.86;100.00;92174.06;6274832;22;20034;-80
2023/10/15 00:11:32;;;;;;;4.70;3.00;;;;;;;12.79;100.00;92157.97;6273951;22;20086;-81
2023/10/15 00:13:58;;;;;;;5.65;3.10;;;;;;;12.72;100.00;92163.66;6274699;22;20007;-81
2023/10/15 00:16:23;;;;;;;8.30;3.22;;;;;;;12.66;100.00;92168.31;6274771;22;20016;-81
2023/10/15 00:18:49;;;;;;;5.28;3.22;;;;;;;12.61;100.00;92168.47;6274868;22;20006;-81
2023/10/15 00:21:15;;;;;;;5.10;2.90;;;;;;;12.53;100.00;92171.81;6276336;22;20007;-80
2023/10/15 00:23:43;;;;;;;5.88;2.90;;;;;;;12.50;100.00;92167.97;6276597;22;20010;-80
2023/10/15 00:26:12;;;;;;;5.95;2.92;;;;;;;12.45;100.00;92162.84;6275224;22;20016;-81
2023/10/15 00:28:45;;;;;;;5.22;3.35;;;;;;;12.44;100.00;92169.16;6274759;22;20011;-80
2023/10/15 00:31:14;;;;;;;4.95;2.50;;;;;;;12.40;100.00;92162.22;6275353;22;20011;-80
2023/10/15 00:33:46;;;;;;;5.03;2.67;;;;;;;12.36;100.00;92166.50;6275276;22;20090;-80
2023/10/15 00:36:15;;;;;;;7.63;3.00;;;;;;;12.31;100.00;92167.44;6276321;22;20011;-80
2023/10/15 00:38:45;;;;;;;4.43;2.58;;;;;;;12.28;100.00;92166.19;6274974;22;19991;-82
2023/10/15 00:41:13;;;;;;;6.10;2.60;;;;;;;12.27;100.00;92164.66;6275003;22;20449;-81
2023/10/15 00:44:09;;;;;;;4.38;2.88;;;;;;;12.23;100.00;92165.56;6249449;22;20376;-79
2023/10/15 00:46:37;;;;;;;4.88;2.97;;;;;;;12.18;100.00;92160.44;6223939;22;20020;-80
2023/10/15 00:49:10;;;;;;;5.20;2.97;;;;;;;12.10;100.00;92154.09;6276010;22;20022;-80
2023/10/15 00:51:40;;;;;;;;;;;;;;;12.08;100.00;92156.25;6276915;22;20018;-81
2023/10/15 00:54:11;;;;;;;4.55;2.97;;;;;;;12.07;100.00;92165.19;6275596;22;19907;-80
2023/10/15 00:56:38;;;;;;;5.05;3.28;;;;;;;12.04;100.00;92152.66;6302131;22;20106;-81
2023/10/15 01:01:51;;;;;;;3.33;2.05;;;;;;;12.17;100.00;92133.44;6279623;22;20329;-81
2023/10/15 01:04:17;;;;;;;4.63;2.22;;;;;;;12.27;100.00;92138.41;6253599;22;20467;-81
2023/10/15 01:06:49;;;;;;;4.88;2.10;;;;;;;12.33;100.00;92130.38;6278930;22;19999;-81
2023/10/15 01:09:27;;;;;;;4.18;2.30;;;;;;;12.36;100.00;92125.31;6279447;22;20011;-81
2023/10/15 01:11:56;;;;;;;4.55;2.42;;;;;;;12.34;100.00;92131.94;6277912;22;20026;-80
2023/10/15 01:14:38;;;;;;;3.45;2.20;;;;;;;12.30;100.00;92139.66;6306412;22;20432;-82
2023/10/15 01:17:05;;;;;;;6.35;2.25;;;;;;;12.28;100.00;92133.94;6278654;22;20014;-82
2023/10/15 01:19:32;;;;;;;3.38;1.92;;;;;;;12.22;100.00;92124.66;6306521;22;20006;-82
2023/10/15 01:22:09;;;;;;;3.35;1.98;;;;;;;12.21;100.00;92121.25;6305938;22;20103;-82
2023/10/15 01:24:37;;;;;;;2.90;1.70;;;;;;;12.27;100.00;92119.25;6306539;22;20021;-82
2023/10/15 01:27:09;;;;;;;2.85;1.70;;;;;;;12.35;100.00;92120.38;6278574;22;20010;-80
2023/10/15 01:29:46;;;;;;;5.88;1.55;;;;;;;12.57;100.00;92122.88;6306024;22;20007;-81
2023/10/15 01:34:45;;;;;;;2.83;1.75;;;;;;;12.73;100.00;92119.81;6305923;22;20015;-81
2023/10/15 01:37:46;;;;;;;7.03;1.85;;;;;;;12.90;100.00;92119.81;6305707;22;19999;-81
2023/10/15 01:42:40;;;;;;;2.95;1.70;;;;;;;12.95;100.00;92114.41;6305813;22;20015;-82
2023/10/15 01:50:15;;;;;;;2.60;1.40;;;;;;;13.05;100.00;92106.22;6305996;22;20022;-81
2023/10/15 01:52:44;;;;;;;3.90;1.50;;;;;;;13.04;100.00;92102.06;6278389;22;20003;-81
2023/10/15 01:55:12;;;;;;;1.75;1.30;;;;;;;13.03;100.00;92107.59;6273346;22;20373;-80
2023/10/15 01:57:39;;;;;;;2.63;1.42;;;;;;;12.97;100.00;92099.13;6273692;22;20035;-80
2023/10/15 02:00:13;;;;;;;2.13;1.48;;;;;;;12.94;100.00;92097.09;6272875;22;20022;-81
2023/10/15 02:02:42;;;;;;;2.67;1.60;;;;;;;12.89;100.00;92105.13;6274885;22;20007;-80
2023/10/15 02:06:09;;;;;;;3.10;1.60;;;;;;;12.82;100.00;92105.59;6277102;22;19999;-82
2023/10/15 02:08:03;;;;;;;2.22;1.40;;;;;;;12.79;100.00;92100.19;6255562;22;20095;-81
2023/10/15 02:10:29;;;;;;;2.95;1.42;;;;;;;12.80;100.00;92101.75;6277239;22;20023;-81
2023/10/15 02:13:04;;;;;;;3.72;1.30;;;;;;;12.85;100.00;92104.97;6276061;22;20019;-81
2023/10/15 02:15:37;;;;;;;1.88;1.23;;;;;;;12.99;100.00;92098.78;6276105;22;20042;-81
2023/10/15 02:18:05;;;;;;;1.67;1.30;;;;;;;13.07;100.00;92098.78;6276150;22;20012;-81
2023/10/15 02:23:33;;;;;;;1.73;1.23;;;;;;;13.37;100.00;92103.44;6158075;23;20040;-81
2023/10/15 02:25:58;;;;;;;1.52;1.20;;;;;;;13.46;100.00;92101.56;6258226;22;20007;-81
2023/10/15 02:28:27;;;;;;;2.97;1.38;;;;;;;13.47;100.00;92088.09;6275558;22;20051;-81
2023/10/15 02:31:18;;;;;;;1.80;1.20;;;;;;;13.49;100.00;92082.53;6278314;22;20003;-81
2023/10/15 02:33:44;;;;;;;1.60;1.20;;;;;;;13.59;100.00;92090.06;6279002;22;20019;-81
2023/10/15 02:36:15;;;;;;;2.05;1.33;;;;;;;13.57;100.00;92081.72;6277419;22;20003;-81
2023/10/15 02:38:52;;;;;;;1.73;1.30;;;;;;;13.64;100.00;92089.91;6277668;22;20038;-83
2023/10/15 02:41:25;;;;;;;1.90;1.20;;;;;;;13.65;100.00;92080.94;6279108;22;20452;-81
2023/10/15 02:43:56;;;;;;;1.83;1.30;;;;;;;13.65;100.00;92088.84;6278575;22;20358;-81
2023/10/15 02:48:56;;;;;;;3.35;1.40;;;;;;;13.77;100.00;92090.81;6277883;22;20403;-80
2023/10/15 02:51:26;;;;;;;1.70;1.20;;;;;;;13.75;100.00;92087.72;6276291;22;20003;-82
2023/10/15 02:54:18;;;;;;;1.45;1.10;;;;;;;13.78;100.00;92086.31;6250389;22;20012;-81
2023/10/15 02:56:38;;;;;;;1.42;1.08;;;;;;;13.78;100.00;92083.69;6274927;22;20114;-81
2023/10/15 02:59:03;;;;;;;1.85;1.30;;;;;;;13.72;100.00;92085.72;6277134;22;20089;-81
2023/10/15 03:01:29;;;;;;;2.08;1.30;;;;;;;13.70;100.00;92086.03;6275962;22;20011;-81
2023/10/15 03:03:56;;;;;;;1.45;1.10;;;;;;;13.70;100.00;92078.13;6275849;22;20082;-81
2023/10/15 03:06:27;;;;;;;2.58;1.30;;;;;;;13.75;100.00;92079.81;6275433;22;20026;-80
2023/10/15 03:08:54;;;;;;;2.75;1.50;;;;;;;13.70;100.00;92074.75;6277309;22;20602;-80
2023/10/15 03:11:20;;;;;;;2.28;1.35;;;;;;;13.70;100.00;92080.75;6249538;22;20026;-82
2023/10/15 03:13:56;;;;;;;3.35;1.40;;;;;;;13.67;100.00;92075.38;6275741;22;20012;-80
2023/10/15 03:16:29;;;;;;;2.42;1.33;;;;;;;13.64;100.00;92076.75;6275979;22;20392;-79
2023/10/15 03:18:56;;;;;;;1.33;1.00;;;;;;;13.65;100.00;92074.91;6276840;22;20058;-80
2023/10/15 03:21:26;;;;;;;2.20;1.20;;;;;;;13.68;100.00;92076.91;6276896;22;20004;-80
2023/10/15 03:23:58;;;;;;;1.23;1.00;;;;;;;13.62;100.00;92072.91;6275226;22;20015;-80
2023/10/15 03:26:30;;;;;;;1.65;1.20;;;;;;;13.67;100.00;92080.63;6250525;22;20445;-80
2023/10/15 03:28:58;;;;;;;1.77;1.20;;;;;;;13.83;99.37;92057.22;6275286;22;20420;-81
2023/10/15 03:31:27;;;;;;;1.85;1.20;;;;;;;13.75;99.95;92064.81;6276890;22;19999;-81
2023/10/15 03:44:59;;;;;;;3.75;1.40;;;;;;;13.74;99.47;92065.91;6224685;22;20020;-79
2023/10/15 03:47:26;;;;;;;1.85;1.30;;;;;;;13.74;100.00;92062.50;6276317;22;20010;-78
2023/10/15 03:49:52;;;;;;;2.10;1.30;;;;;;;13.77;100.00;92058.47;6274563;22;20016;-80
2023/10/15 03:52:21;;;;;;;2.25;1.40;;;;;;;13.85;100.00;92055.03;6274918;22;20004;-80
2023/10/15 03:54:48;;;;;;;1.88;1.30;;;;;;;13.83;99.00;92063.25;6278169;22;20065;-82
2023/10/15 03:57:17;;;;;;;2.33;1.40;;;;;;;13.82;97.82;92066.19;6254075;22;20007;-81
2023/10/15 03:59:53;;;;;;;1.25;1.10;;;;;;;13.75;99.42;92062.16;6279113;22;20012;-81
2023/10/15 04:02:24;;;;;;;2.45;1.27;;;;;;;13.76;97.80;92060.34;6307336;22;20019;-82
2023/10/15 04:05:11;;;;;;;2.00;1.15;;;;;;;13.70;98.20;92069.47;6306668;22;20018;-82
2023/10/15 04:07:47;;;;;;;1.48;1.20;;;;;;;13.59;99.04;92060.38;6279738;22;20015;-82
2023/10/15 04:10:15;;;;;;;2.17;1.20;;;;;;;13.63;97.90;92064.69;6306369;22;20069;-81
2023/10/15 04:12:43;;;;;;;2.28;1.30;;;;;;;13.61;98.22;92066.09;6253830;22;20003;-82
2023/10/15 04:15:16;;;;;;;1.48;1.10;;;;;;;13.55;99.35;92070.75;6306063;22;20388;-82
2023/10/15 04:17:48;;;;;;;1.65;1.13;;;;;;;13.59;97.61;92063.78;6306603;22;20037;-81
2023/10/15 04:20:15;;;;;;;2.60;1.00;;;;;;;13.52;98.11;92058.25;6306981;22;20372;-81
2023/10/15 04:22:45;;;;;;;1.42;1.00;;;;;;;13.48;96.67;92059.94;6307671;22;20383;-81
2023/10/15 04:25:23;;;;;;;2.22;1.20;;;;;;;13.58;93.88;92064.88;6278633;22;20019;-82
2023/10/15 04:27:50;;;;;;;1.20;1.10;;;;;;;13.61;93.11;92069.50;6279638;22;20472;-81
2023/10/15 04:30:16;;;;;;;1.48;1.17;;;;;;;13.58;92.81;92062.25;6307204;22;20003;-81
2023/10/15 04:35:16;;;;;;;0.93;0.90;;;;;;;13.50;91.65;92063.81;6306245;22;20034;-81
2023/10/15 04:37:45;;;;;;;1.75;1.08;;;;;;;13.52;92.19;92058.25;6279425;22;20018;-81
2023/10/15 04:40:11;;;;;;;1.25;1.10;;;;;;;13.58;90.47;92062.25;6306167;22;19999;-80
2023/10/15 04:42:49;;;;;;;1.10;1.00;;;;;;;13.53;91.31;92059.78;6306610;22;20035;-81
2023/10/15 04:45:23;;;;;;;1.58;1.10;;;;;;;13.54;92.05;92066.59;6306998;22;20098;-80
2023/10/15 04:47:59;;;;;;;1.65;1.00;;;;;;;13.49;93.55;92064.13;6279125;22;20019;-80
2023/10/15 04:50:32;;;;;;;1.33;0.95;;;;;;;13.50;92.56;92066.44;6306850;22;20348;-80
2023/10/15 04:53:15;;;;;;;1.23;1.02;;;;;;;13.48;94.14;92058.09;6306718;22;20011;-80
2023/10/15 04:55:41;;;;;;;1.80;1.02;;;;;;;13.59;89.89;92063.78;6278034;22;20094;-80
2023/10/15 04:58:07;;;;;;;1.45;0.98;;;;;;;13.48;91.74;92063.34;6278859;22;20336;-80
2023/10/15 05:00:35;;;;;;;0.90;0.82;;;;;;;13.50;90.55;92065.66;6307085;22;20038;-81
2023/10/15 05:03:01;;;;;;;1.55;1.00;;;;;;;13.43;90.39;92065.38;6305853;22;20006;-80
2023/10/15 05:05:26;;;;;;;2.30;1.08;;;;;;;13.33;91.01;92054.13;6306862;22;20015;-81
2023/10/15 05:07:57;;;;;;;1.15;1.00;;;;;;;13.51;88.07;92068.00;6253914;22;20007;-81
2023/10/15 05:10:23;;;;;;;0.95;0.95;;;;;;;13.47;88.76;92061.81;6306706;22;20015;-80
2023/10/15 05:12:51;;;;;;;1.33;1.00;;;;;;;13.40;87.89;92063.38;6279512;22;20046;-81
2023/10/15 05:15:18;;;;;;;1.10;1.00;;;;;;;13.59;85.87;92061.16;6279089;22;20444;-81
2023/10/15 05:17:46;;;;;;;1.05;0.90;;;;;;;13.63;86.15;92054.19;6306720;22;19999;-81
2023/10/15 05:20:13;;;;;;;1.45;0.93;;;;;;;13.56;86.27;92064.41;6280035;22;20015;-81
2023/10/15 05:22:40;;;;;;;0.90;0.90;;;;;;;13.58;85.60;92048.31;6278545;22;19999;-82
2023/10/15 05:25:11;;;;;;;1.52;1.13;;;;;;;13.60;87.65;92064.53;6253137;22;20412;-80
2023/10/15 05:27:37;;;;;;;2.08;1.20;;;;;;;13.50;87.43;92060.41;6305304;22;20046;-81
2023/10/15 05:30:03;;;;;;;1.15;0.95;;;;;;;13.46;89.07;92057.63;6279496;22;20004;-81
2023/10/15 05:32:28;;;;;;;1.95;1.20;;;;;;;13.51;87.65;92068.00;6306598;22;20015;-81
2023/10/15 05:34:54;;;;;;;1.20;1.10;;;;;;;13.51;88.52;92064.59;6279325;22;20003;-81
2023/10/15 05:37:20;;;;;;;1.02;0.85;;;;;;;13.41;88.72;92068.31;6307640;22;20534;-80
2023/10/15 05:39:46;;;;;;;1.38;0.90;;;;;;;13.35;89.80;92064.31;6281401;22;20022;-81
2023/10/15 05:42:12;;;;;;;1.00;0.90;;;;;;;13.43;85.49;92062.75;6281084;22;20357;-82
2023/10/15 05:44:37;;;;;;;1.77;1.10;;;;;;;13.46;86.80;92073.41;6309354;22;20010;-80
2023/10/15 05:47:03;;;;;;;1.65;1.23;;;;;;;13.48;85.66;92068.59;6280877;22;20023;-81
2023/10/15 05:49:28;;;;;;;1.20;0.90;;;;;;;13.61;85.68;92068.75;6308682;22;20033;-80
2023/10/15 05:51:54;;;;;;;1.95;1.10;;;;;;;13.57;87.35;92065.19;6281313;22;20019;-81
2023/10/15 05:54:21;;;;;;;2.92;1.08;;;;;;;13.72;85.86;92067.31;6308093;22;20420;-80
2023/10/15 05:56:47;;;;;;;1.38;1.00;;;;;;;14.38;82.71;92072.09;6281090;22;20045;-81
2023/10/15 05:59:12;;;;;;;1.23;1.05;;;;;;;14.91;78.88;92072.56;6307546;22;20035;-81
2023/10/15 06:01:38;;;;;;;1.60;1.10;;;;;;;15.40;74.41;92078.78;6307949;22;20014;-81
2023/10/15 06:04:04;;;;;;;1.17;1.00;;;;;;;16.09;72.04;92075.72;6282063;22;20010;-79
2023/10/15 06:06:29;;;;;;;4.75;1.00;;;;;;;16.62;71.45;92066.78;6282890;22;20031;-79
2023/10/15 06:08:59;;;;;;;1.85;1.17;;;;;;;17.26;64.65;92067.06;6258920;22;20004;-80
2023/10/15 06:11:25;;;;;;;2.33;0.95;;;;;;;17.24;65.29;92064.75;6282228;22;20018;-80
2023/10/15 06:13:51;;;;;;;1.00;0.90;;;;;;;16.50;65.58;92060.75;6283119;22;19999;-79
2023/10/15 06:16:18;;;;;;;0.80;0.77;;;;;;;15.80;68.36;92074.81;6261930;22;20011;-79
2023/10/15 06:18:43;;;;;;;0.80;0.80;;;;;;;15.85;68.17;92074.63;6308479;22;20002;-80
2023/10/15 06:21:09;;;;;;;2.85;0.80;;;;;;;15.69;68.95;92078.94;6282367;22;20011;-81
2023/10/15 06:23:35;;;;;;;1.50;0.70;;;;;;;15.46;70.41;92081.22;6282349;22;20003;-81
2023/10/15 06:26:00;;;;;;;0.63;0.52;;;;;;;15.43;71.45;92084.50;6310014;22;20029;-80
2023/10/15 06:28:26;;;;;;;1.63;1.00;;;;;;;15.49;72.82;92083.19;6281466;22;20018;-80
2023/10/15 06:30:51;;;;;;;1.02;0.93;;;;;;;15.60;70.69;92087.75;6257389;22;20090;-80
2023/10/15 06:33:18;;;;;;;1.05;0.88;;;;;;;15.64;68.09;92087.09;6309997;22;20026;-80
2023/10/15 06:35:43;;;;;;;2.08;0.70;;;;;;;15.44;66.54;92094.72;6309355;22;20308;-79
2023/10/15 06:38:09;;;;;;;1.00;0.90;;;;;;;15.33;67.25;92101.50;6282475;22;20003;-79
2023/10/15 06:40:37;;;;;;;1.02;0.80;;;;;;;15.15;68.69;92093.75;6311170;22;20022;-80
2023/10/15 06:43:03;;;;;;;0.70;0.70;;;;;;;14.99;68.41;92101.47;6310593;22;20502;-79
2023/10/15 06:45:30;;;;;;;0.85;0.80;;;;;;;14.94;69.31;92100.88;6310298;22;20011;-79
2023/10/15 06:47:55;;;;;;;0.80;0.80;;;;;;;14.87;71.07;92117.22;6281096;22;20011;-79
2023/10/15 06:50:33;;;;;;;1.05;0.90;;;;;;;14.82;70.97;92098.97;6310034;22;20016;-80
2023/10/15 06:53:05;;;;;;;0.73;0.70;;;;;;;14.96;71.74;92123.19;6283792;22;20024;-80
2023/10/15 06:55:31;;;;;;;1.05;0.90;;;;;;;15.02;67.51;92121.16;6308286;22;20125;-79
2023/10/15 06:57:57;;;;;;;0.60;0.60;;;;;;;15.10;69.14;92122.16;6309297;22;20011;-79
2023/10/15 07:00:25;;;;;;;0.63;0.63;;;;;;;15.31;69.83;92115.00;6309911;22;20018;-80
2023/10/15 07:02:52;;;;;;;0.70;0.70;;;;;;;15.53;66.39;92113.88;6282066;22;20044;-83
2023/10/15 07:05:20;;;;;;;1.58;1.00;;;;;;;15.65;67.18;92117.63;6281718;22;20019;-88
2023/10/15 07:07:46;;;;;;;4.15;0.90;;;;;;;15.65;68.58;92121.06;6307429;22;20306;-85
2023/10/15 07:10:15;;;;;;;1.13;0.75;;;;;;;15.68;67.22;92109.09;6305457;22;20753;-84
2023/10/15 07:12:50;;;;;;;0.82;0.80;;;;;;;15.61;65.28;92115.66;6307340;22;20389;-85
2023/10/15 07:15:17;;;;;;;1.58;0.85;;;;;;;15.58;67.41;92124.22;6279861;22;20042;-85
2023/10/15 07:17:44;;;;;;;0.93;0.70;;;;;;;15.50;63.77;92135.63;6306214;22;20002;-87
2023/10/15 07:20:18;;;;;;;5.82;0.90;;;;;;;15.55;62.40;92130.13;6280220;22;20118;-86
2023/10/15 07:22:53;;;;;;;0.80;0.80;;;;;;;15.34;63.62;92132.06;6254586;22;20348;-85
2023/10/15 07:25:21;;;;;;;1.33;1.00;;;;;;;15.19;62.84;92122.84;6282515;22;20014;-85
2023/10/15 07:27:48;;;;;;;0.60;0.60;;;;;;;15.13;63.85;92132.06;6255431;22;20011;-84
2023/10/15 07:30:15;;;;;;;1.10;1.00;;;;;;;15.12;64.09;92131.28;6280514;22;20043;-85
2023/10/15 07:32:44;;;;;;;0.80;0.80;;;;;;;14.99;62.97;92127.03;6280717;22;20026;-83
2023/10/15 07:35:13;;;;;;;1.27;0.90;;;;;;;14.88;64.12;92136.41;6307143;22;20072;-84
2023/10/15 07:37:46;;;;;;;0.70;0.70;;;;;;;14.76;63.77;92140.53;6309283;22;20002;-82
2023/10/15 07:40:17;;;;;;;0.90;0.90;;;;;;;14.73;64.29;92150.94;6252165;22;20019;-82
2023/10/15 07:42:45;;;;;;;0.95;0.70;;;;;;;14.83;63.54;92147.91;6256684;22;20011;-83
2023/10/15 07:45:11;;;;;;;0.80;0.65;;;;;;;14.84;63.62;92161.88;6307467;22;19999;-84
2023/10/15 07:47:37;;;;;;;4.57;0.75;;;;;;;14.88;63.43;92160.13;6281462;22;20012;-87
2023/10/15 07:50:10;;;;;;;1.17;0.90;;;;;;;15.06;62.61;92164.19;6282556;22;20003;-86
2023/10/15 07:52:37;;;;;;;0.70;0.70;;;;;;;15.36;63.71;92166.78;6283261;22;20054;-86
2023/10/15 07:55:05;;;;;;;1.75;0.90;;;;;;;15.70;62.10;92175.50;6276833;22;20349;-86
2023/10/15 07:57:33;;;;;;;1.00;0.80;;;;;;;16.05;57.94;92172.53;6252238;22;20336;-85
2023/10/15 08:00:00;;;;;;;0.77;0.77;;;;;;;16.21;56.42;92173.44;6278862;22;20019;-86
2023/10/15 08:02:27;;;;;;;0.73;0.73;;;;;;;16.26;54.46;92178.53;6279199;22;20016;-84
2023/10/15 08:04:54;;;;;;;1.10;0.90;;;;;;;16.54;54.74;92183.16;6276472;22;20059;-85
2023/10/15 08:07:21;;;;;;;0.70;0.70;;;;;;;16.84;49.39;92173.94;6251284;22;20023;-86
2023/10/15 08:09:47;;;;;;;0.80;0.73;;;;;;;17.12;54.10;92173.22;6278590;22;20000;-84
2023/10/15 08:12:13;;;;;;;0.77;0.70;;;;;;;17.30;51.21;92179.03;6278311;22;20015;-85
2023/10/15 08:14:38;;;;;;;1.05;0.77;;;;;;;17.38;48.88;92180.00;6278415;22;20004;-86
2023/10/15 08:17:05;;;;;;;2.78;0.80;;;;;;;17.44;51.47;92173.38;6278009;22;20022;-86
2023/10/15 08:19:30;;;;;;;0.68;0.60;;;;;;;17.27;47.31;92174.41;6278127;22;20003;-87
2023/10/15 08:21:56;;;;;;;2.88;0.80;;;;;;;17.24;48.68;92175.84;6276665;22;20015;-83
2023/10/15 08:24:21;;;;;;;0.73;0.70;;;;;;;16.86;46.28;92186.81;6279216;22;20439;-83
2023/10/15 08:26:47;;;;;;;0.80;0.80;;;;;;;17.32;50.93;92181.34;6278164;22;20067;-84
2023/10/15 08:29:13;;;;;;;1.92;0.90;;;;;;;17.62;48.59;92173.84;6250897;22;20008;-86
2023/10/15 08:31:39;;;;;;;0.63;0.63;;;;;;;17.25;47.26;92182.69;6276637;22;20364;-84
2023/10/15 08:34:04;;;;;;;1.35;0.90;;;;;;;17.48;47.83;92174.25;6252346;22;20000;-83
2023/10/15 08:36:30;;;;;;;2.40;0.75;;;;;;;17.84;48.39;92180.53;6278965;22;20039;-86
2023/10/15 08:38:55;;;;;;;0.80;0.70;;;;;;;18.30;47.53;92175.63;6276592;22;20069;-87
2023/10/15 08:41:24;;;;;;;0.77;0.73;;;;;;;18.63;46.29;92182.50;6251902;22;20015;-86
2023/10/15 08:43:51;;;;;;;1.10;0.90;;;;;;;18.10;43.55;92182.69;6252904;22;20004;-87
2023/10/15 08:46:24;;;;;;;2.83;0.80;;;;;;;17.74;43.29;92180.97;6252290;22;20011;-85
2023/10/15 08:48:50;;;;;;;0.50;0.50;;;;;;;17.50;47.00;92187.16;6279750;22;20100;-86
2023/10/15 08:51:21;;;;;;;0.70;0.63;;;;;;;17.65;43.43;92184.56;6278232;22;20460;-85
2023/10/15 08:53:50;;;;;;;0.93;0.77;;;;;;;17.44;43.85;92183.94;6280188;22;20016;-86
2023/10/15 08:56:21;;;;;;;0.75;0.75;;;;;;;17.30;43.02;92184.31;6300866;22;20015;-85
2023/10/15 08:58:52;;;;;;;0.93;0.85;;;;;;;17.53;43.86;92179.28;6256962;22;20333;-87
2023/10/15 09:01:19;;;;;;;0.60;0.60;;;;;;;17.84;45.06;92185.81;6259675;22;20014;-84
2023/10/15 09:03:45;;;;;;;0.75;0.60;;;;;;;18.20;42.58;92179.56;6309232;22;20003;-84
2023/10/15 09:06:12;;;;;;;1.85;0.90;;;;;;;18.30;41.21;92197.59;6252319;22;20441;-83
2023/10/15 09:08:41;;;;;;;1.00;0.88;;;;;;;18.59;40.78;92178.97;6307213;22;20102;-84
2023/10/15 09:11:07;;;;;;;0.40;0.40;;;;;;;18.50;40.56;92184.44;6277438;22;20012;-84
2023/10/15 09:13:36;;;;;;;0.70;0.63;;;;;;;18.63;40.28;92185.13;6278191;22;19999;-86
2023/10/15 09:16:05;;;;;;;3.35;0.80;;;;;;;18.70;41.73;92182.66;6305844;22;20015;-86
2023/10/15 09:18:35;;;;;;;0.93;0.80;;;;;;;19.13;38.76;92183.63;6305891;22;20448;-85
2023/10/15 09:21:04;;;;;;;0.85;0.75;;;;;;;18.60;39.17;92183.16;6305146;22;20007;-84
2023/10/15 09:23:32;;;;;;;1.35;0.70;;;;;;;18.47;38.06;92175.31;6256727;22;20019;-86
2023/10/15 09:25:57;;;;;;;4.47;0.80;;;;;;;18.58;41.61;92177.47;6302800;22;20023;-84
2023/10/15 09:28:33;;;;;;;4.03;0.70;;;;;;;18.81;37.66;92174.97;6276869;22;20353;-85
2023/10/15 09:31:09;;;;;;;0.70;0.70;;;;;;;18.81;38.04;92178.38;6278985;22;20020;-84
2023/10/15 09:33:35;;;;;;;2.28;0.55;;;;;;;18.88;37.10;92181.19;6305523;22;20417;-86
2023/10/15 09:36:04;;;;;;;1.48;0.73;;;;;;;18.66;37.29;92181.78;6279297;22;20332;-83
2023/10/15 09:38:31;;;;;;;3.35;0.60;;;;;;;18.26;37.06;92182.72;6306379;22;20008;-85
2023/10/15 09:41:01;;;;;;;0.88;0.68;;;;;;;18.25;37.98;92181.19;6304494;22;20003;-86
2023/10/15 09:43:36;;;;;;;0.88;0.80;;;;;;;17.97;36.42;92184.66;6279081;22;20007;-86
2023/10/15 09:46:03;;;;;;;0.85;0.65;;;;;;;18.29;42.70;92179.41;6250978;22;20077;-86
2023/10/15 09:48:29;;;;;;;1.60;0.90;;;;;;;18.65;41.06;92177.63;6276358;22;20087;-86
2023/10/15 09:50:59;;;;;;;2.55;0.73;;;;;;;18.79;41.17;92179.84;6302589;22;20136;-89
2023/10/15 09:53:33;;;;;;;0.90;0.80;;;;;;;18.84;38.52;92183.00;6255185;22;20661;-84
2023/10/15 09:56:07;;;;;;;0.63;0.60;;;;;;;18.92;36.82;92190.00;6302891;22;20015;-83
2023/10/15 09:58:34;;;;;;;0.60;0.60;;;;;;;18.98;35.74;92197.69;6304853;22;20080;-85
2023/10/15 10:01:28;;;;;;;1.05;0.90;;;;;;;18.95;34.61;92199.16;6277884;22;19999;-84
2023/10/15 10:04:40;;;;;;;2.33;0.65;;;;;;;18.50;32.86;92197.69;6225870;22;20103;-84
2023/10/15 10:07:23;;;;;;;0.50;0.50;;;;;;;18.82;33.02;92198.47;6276071;22;20343;-83
2023/10/15 10:10:09;;;;;;;0.73;0.63;;;;;;;18.79;32.82;92196.53;6305867;22;20090;-86
2023/10/15 10:13:08;;;;;;;0.75;0.47;;;;;;;18.99;33.36;92197.34;6276735;22;20011;-86
2023/10/15 10:16:06;;;;;;;1.33;0.73;;;;;;;19.11;32.06;92197.25;6274866;22;20011;-84
2023/10/15 10:18:33;;;;;;;1.27;0.60;;;;;;;19.33;33.73;92190.50;6303731;22;20011;-83
2023/10/15 10:21:08;;;;;;;0.50;0.50;;;;;;;19.56;31.50;92193.25;6304243;22;20015;-86
2023/10/15 10:23:34;;;;;;;0.70;0.70;;;;;;;19.66;29.50;92199.16;6277937;22;20032;-85
2023/10/15 10:26:12;;;;;;;0.50;0.50;;;;;;;19.74;28.97;92190.22;6306739;22;20591;-87
2023/10/15 10:28:39;;;;;;;0.55;0.55;;;;;;;19.63;30.22;92197.19;6308504;22;20007;-87
2023/10/15 10:31:08;;;;;;;0.70;0.70;;;;;;;19.73;28.82;92189.47;6309925;22;19999;-89
2023/10/15 10:33:43;;;;;;;3.03;0.80;;;;;;;19.47;29.74;92182.06;6282123;22;20019;-83
2023/10/15 10:36:13;;;;;;;2.72;0.68;;;;;;;19.54;29.71;92174.28;6308008;22;20015;-84
2023/10/15 10:38:39;;;;;;;0.60;0.60;;;;;;;19.79;29.56;92157.31;6308680;22;20010;-85
2023/10/15 10:41:13;;;;;;;2.70;0.73;;;;;;;19.61;27.95;92173.66;6308727;22;20340;-87
2023/10/15 10:43:43;;;;;;;4.65;0.73;;;;;;;19.45;28.59;92168.38;6283185;22;20007;-85
2023/10/15 10:46:21;;;;;;;0.50;0.50;;;;;;;19.51;28.78;92166.22;6309139;22;20106;-88
2023/10/15 10:49:08;;;;;;;0.60;0.60;;;;;;;19.47;28.50;92173.34;6309205;22;20022;-87
2023/10/15 10:51:34;;;;;;;2.88;0.77;;;;;;;19.44;28.03;92168.75;6280888;22;20034;-84
2023/10/15 10:53:59;;;;;;;0.75;0.60;;;;;;;19.39;28.02;92183.06;6283171;22;20015;-82
2023/10/15 10:56:40;;;;;;;2.30;0.70;;;;;;;19.05;27.51;92195.19;6282416;22;20015;-84
2023/10/15 10:59:10;;;;;;;0.55;0.55;;;;;;;18.91;28.79;92177.09;6308276;22;20003;-87
2023/10/15 11:01:46;;;;;;;0.50;0.50;;;;;;;18.93;28.45;92196.06;6306719;22;20007;-82
2023/10/15 11:04:15;;;;;;;1.20;0.80;;;;;;;19.18;29.28;92207.25;6307973;22;20098;-84
2023/10/15 11:06:45;;;;;;;1.77;0.60;;;;;;;19.31;28.31;92200.69;6280094;22;20440;-81
2023/10/15 11:09:22;;;;;;;0.98;0.60;;;;;;;19.29;28.88;92202.94;6307939;22;20112;-82
2023/10/15 11:11:55;;;;;;;2.97;0.90;;;;;;;19.08;29.14;92211.19;6308662;22;20075;-83
2023/10/15 11:14:27;;;;;;;0.70;0.60;;;;;;;19.15;30.17;92213.25;6281024;22;20038;-84
2023/10/15 11:16:55;;;;;;;0.60;0.60;;;;;;;19.28;28.23;92209.38;6281427;22;20100;-81
2023/10/15 11:19:23;;;;;;;0.70;0.57;;;;;;;18.85;30.54;92215.59;6309103;22;20006;-83
2023/10/15 11:21:51;;;;;;;1.02;0.70;;;;;;;19.11;29.15;92199.13;6281437;22;20436;-86
2023/10/15 11:24:18;;;;;;;1.75;0.73;;;;;;;19.19;31.03;92202.72;6307815;22;20014;-83
2023/10/15 11:26:45;;;;;;;0.50;0.50;;;;;;;19.00;31.11;92217.44;6309003;22;20022;-84
2023/10/15 11:29:12;;;;;;;0.60;0.60;;;;;;;19.28;30.12;92206.72;6280311;22;20058;-85
2023/10/15 11:31:43;;;;;;;0.70;0.70;;;;;;;18.36;27.79;92207.97;6308347;22;20075;-84
2023/10/15 11:34:11;;;;;;;0.98;0.70;;;;;;;18.55;29.75;92194.03;6308191;22;20023;-84
2023/10/15 11:36:37;;;;;;;1.23;0.70;;;;;;;18.76;30.96;92194.53;6307457;22;20206;-83
2023/10/15 11:39:09;;;;;;;1.20;0.60;;;;;;;18.74;28.71;92196.75;6281546;22;20007;-83
2023/10/15 11:41:39;;;;;;;2.15;0.60;;;;;;;19.29;27.20;92196.84;6281728;22;20070;-84
2023/10/15 11:44:06;;;;;;;0.50;0.50;;;;;;;19.05;28.27;92197.84;6281995;22;20050;-84
2023/10/15 11:46:35;;;;;;;1.15;0.40;;;;;;;18.80;28.58;92187.47;6308410;22;20010;-83
2023/10/15 11:49:01;;;;;;;1.95;0.70;;;;;;;18.91;29.17;92180.53;6308642;22;20041;-84
2023/10/15 11:51:31;;;;;;;0.73;0.73;;;;;;;19.15;27.37;92181.41;6281633;22;20015;-84
2023/10/15 11:54:01;;;;;;;0.77;0.77;;;;;;;19.38;28.60;92180.75;6307482;22;20002;-83
2023/10/15 11:56:31;;;;;;;0.80;0.60;;;;;;;19.54;28.01;92176.13;6307864;22;20019;-85
2023/10/15 11:58:57;;;;;;;2.90;0.80;;;;;;;19.91;28.39;92184.50;6307102;22;20003;-82
2023/10/15 12:01:24;;;;;;;0.60;0.60;;;;;;;19.92;28.23;92169.31;6307273;22;19999;-83
2023/10/15 12:03:51;;;;;;;1.42;0.73;;;;;;;20.17;30.97;92159.91;6307746;22;20011;-86
2023/10/15 12:06:16;;;;;;;2.35;0.88;;;;;;;20.42;29.40;92175.50;6280294;22;20006;-83
2023/10/15 12:08:42;;;;;;;0.52;0.45;;;;;;;20.52;27.34;92179.47;6307771;22;20012;-82
2023/10/15 12:11:08;;;;;;;0.98;0.70;;;;;;;20.36;28.22;92176.94;6306752;22;19999;-83
2023/10/15 12:13:34;;;;;;;0.95;0.77;;;;;;;20.43;27.88;92166.41;6254029;22;20015;-84
2023/10/15 12:16:00;;;;;;;0.60;0.60;;;;;;;19.50;26.88;92164.72;6306929;22;20426;-85